Egralharve, Iowa
Current Conditions -  °F | °C
As of 8:53 PM on Saturday 27 Dec 2014 (Local Time) from KMJQ Reporting Station
Clear Clear  
Wind Chill:   Ceiling: Unl
Heat Index: 12°   Visibility: 10mi
Dew Point:   Wind: 9mph
Humidity: 85%   Direction: 250°WSW
Pressure: 30.13"   Gusts: NA
Location:  43.4265°N, 95.1547°W
Report Text: KMJQ 280253Z AUTO 25008KT 10SM CLR M11/M13 A3013 RMK AO2
Loading
Personal Weather Stations






























Interactive Weather Map New forecast layout! Learn more

10-Day Weather Forecast

Advertisements
Track Severe Weather on mobile